Back to top

Casper, Wyoming Weather

Natrona County International Airport, Casper, WY: 1/22/2019 19:53
Visibility10 statute milesclear sky
View 7-Day Forecast
Area Summary
Sky/CloudsSky Clear
Weather [last 24 hours]None [snow ended 20:49; snow ended 01:08; snow began 03:02; snow ended 05:22; snow ended 08:14 began 08:19; snow ended 09:05 ]
Pressure30.04 in.Hg (1017 hPa)
3-hour Pressure Tendency0.02362 in.Hg (0.8 hPa) Decreasing, then steady, or decreasing then decreasing more slowly
Dew Point12 °F (-11.1 °C)
Relative Humidity70.8 %
Last 24-Hour Precip.0.01 in. (0.254 mm)
Reading TimePrecipitation
6-hr ending 1/22@10:530.02 in. (0.508 mm)
Temperature19.9 °F (-6.7 °C)blue thermometer
Wind Chill4.27 °F (-15.4 °C)
Reading TimeMinimum to Maximum Temperature
6-hr ending 1/22@16:5319.9 °F to 24.1 °F (-6.7 °C to -4.4 °C)
6-hr ending 1/22@10:5319.9 °F to 21.9 °F (-6.7 °C to -5.6 °C)
Wind19.6 MPH (17 KT) green arrow pointing 225 degrees
Wind FromSouthwest (220 Degrees)
Rolling 24-hr Peak Wind32.2 MPH (28 KT) on 1/21@21:17
Rolling 24-hr Peak Wind FromNorth (010 Degrees)
Twilight Begins06:59Sunshine Yesterday
Sunrise07:29N/A
Sunset17:06
Twilight Ends17:37
METARKCPR 230253Z 22017KT 10SM CLR M07/M11 A3004 RMK AO2 SLP223 T10671111 56008